Douglas, OK (73733)

6:06 AM CST en Enero 28, 2015 (GMT -0600)
Enid | Change Station
CLOSE
Current Station
Aeropuerto
Location: Enid,
Altura: 1168 ft
Estaciones meteorológicas cercanas

Alt 1168 ft 36.38 °N, 97.79 °W | Updated 1 hour ago

Despejado
Despejado
41 ° F
Sensación térmica 35 ° F
N
9
Viento Variable Viento desde SSE

Hoy
Alta -- | Baja -- ° F
--% Posibilidad de precipitaciones
Ayer
Alta -- | Baja -- ° F
Precip. -- pul
7:34 AM 5:52 PM
Gibosa creciente, 64% visible
Presión 29.95 pul
Visibilidad 10.0 Millas
Nubes Despejado
Vientos helados 35 ° F
Punto de rocío 37 ° F
Humedad 87%
Precipitaciones 0.00 pul
Espesor de la nieve No disponible.
UV 0 de una escala de 12
Polen 4.40 de una escala de 12
Calidad del aire No disponible.
Flu Activity No disponible.
METAR KWDG 281055Z AUTO 16008KT 10SM CLR 05/03 A2995 RMK AO2

More Conditions Fewer Conditions

Presión 29.95 pul
Visibilidad 10.0 Millas
Nubes Despejado
Vientos helados 35 ° F
Punto de rocío 37 ° F
Humedad 87%
Precipitaciones 0.00 pul
Espesor de la nieve No disponible.
UV 0 de una escala de 12
Polen 4.40 de una escala de 12
Calidad del aire No disponible.
Flu Activity No disponible.
METAR KWDG 281055Z AUTO 16008KT 10SM CLR 05/03 A2995 RMK AO2

More Conditions Fewer Conditions

10-Day Weather Forecast

Almanac

Astronomía

Jan. 28, 2015 Salida Puesta
Hora real
Crepúsculo civil
Crepúsculo náutico
Crepúsculo astronómico
Luna
Horas de luz
Horas de luz
Tomorrow will be .
, % of the Moon is Illuminated

Extremos de hoy

Máximos del estado Bajos del estado

Community

WunderPhotos

Upload Photos

1,791,127 ¡fotos cargadas!

WunderBlogs® & News

Nearby

Calidad del aire

  Calidad del aire Índice AQ Contaminante
Not available.

Grosos de nieve

Estación Profundido Altura

Actividad de terremotos

Ciudad Distance Mag. Tiempo y dato
Magnitud mínima muestra es 2,5.

Temperaturas de aguas costeras

Lugar Temperatura

Estaciones meteorológicas cercanas